sensor_id;sensor_type;location;lat;lon;timestamp;temperature;humidity
77496;SHT31;66600;48.378;9.948;2023-04-24T00:01:14;9.26;90.50
77496;SHT31;66600;48.378;9.948;2023-04-24T00:03:40;9.22;90.59
77496;SHT31;66600;48.378;9.948;2023-04-24T00:06:06;9.22;91.05
77496;SHT31;66600;48.378;9.948;2023-04-24T00:08:33;9.23;91.35
77496;SHT31;66600;48.378;9.948;2023-04-24T00:10:58;9.23;91.26
77496;SHT31;66600;48.378;9.948;2023-04-24T00:13:24;9.20;91.16
77496;SHT31;66600;48.378;9.948;2023-04-24T00:15:49;9.17;91.36
77496;SHT31;66600;48.378;9.948;2023-04-24T00:18:15;9.20;91.34
77496;SHT31;66600;48.378;9.948;2023-04-24T00:20:40;9.19;91.03
77496;SHT31;66600;48.378;9.948;2023-04-24T00:23:05;9.19;91.28
77496;SHT31;66600;48.378;9.948;2023-04-24T00:25:31;9.20;91.51
77496;SHT31;66600;48.378;9.948;2023-04-24T00:27:56;9.19;91.30
77496;SHT31;66600;48.378;9.948;2023-04-24T00:30:21;9.22;91.30
77496;SHT31;66600;48.378;9.948;2023-04-24T00:32:47;9.19;91.14
77496;SHT31;66600;48.378;9.948;2023-04-24T00:35:12;9.24;91.41
77496;SHT31;66600;48.378;9.948;2023-04-24T00:37:37;9.23;91.23
77496;SHT31;66600;48.378;9.948;2023-04-24T00:40:03;9.27;91.32
77496;SHT31;66600;48.378;9.948;2023-04-24T00:42:28;9.28;91.12
77496;SHT31;66600;48.378;9.948;2023-04-24T00:44:54;9.23;90.98
77496;SHT31;66600;48.378;9.948;2023-04-24T00:47:19;9.24;91.02
77496;SHT31;66600;48.378;9.948;2023-04-24T00:49:46;9.23;91.02
77496;SHT31;66600;48.378;9.948;2023-04-24T00:52:12;9.23;90.86
77496;SHT31;66600;48.378;9.948;2023-04-24T00:54:37;9.24;90.48
77496;SHT31;66600;48.378;9.948;2023-04-24T00:57:03;9.23;90.26
77496;SHT31;66600;48.378;9.948;2023-04-24T00:59:28;9.24;90.58
77496;SHT31;66600;48.378;9.948;2023-04-24T01:01:55;9.23;90.22
77496;SHT31;66600;48.378;9.948;2023-04-24T01:04:20;9.23;90.28
77496;SHT31;66600;48.378;9.948;2023-04-24T01:06:46;9.27;90.25
77496;SHT31;66600;48.378;9.948;2023-04-24T01:09:12;9.24;90.43
77496;SHT31;66600;48.378;9.948;2023-04-24T01:11:37;9.20;90.46
77496;SHT31;66600;48.378;9.948;2023-04-24T01:14:03;9.16;90.63
77496;SHT31;66600;48.378;9.948;2023-04-24T01:16:28;9.10;90.57
77496;SHT31;66600;48.378;9.948;2023-04-24T01:18:54;9.15;90.37
77496;SHT31;66600;48.378;9.948;2023-04-24T01:21:20;9.15;90.69
77496;SHT31;66600;48.378;9.948;2023-04-24T01:23:46;9.10;90.57
77496;SHT31;66600;48.378;9.948;2023-04-24T01:26:13;9.07;90.60
77496;SHT31;66600;48.378;9.948;2023-04-24T01:28:38;9.09;90.52
77496;SHT31;66600;48.378;9.948;2023-04-24T01:31:04;9.06;90.44
77496;SHT31;66600;48.378;9.948;2023-04-24T01:33:30;9.00;90.73
77496;SHT31;66600;48.378;9.948;2023-04-24T01:35:56;9.03;90.92
77496;SHT31;66600;48.378;9.948;2023-04-24T01:38:21;9.03;90.93
77496;SHT31;66600;48.378;9.948;2023-04-24T01:40:47;9.05;91.00
77496;SHT31;66600;48.378;9.948;2023-04-24T01:43:13;9.05;90.75
77496;SHT31;66600;48.378;9.948;2023-04-24T01:45:38;9.02;90.84
77496;SHT31;66600;48.378;9.948;2023-04-24T01:48:03;9.00;90.87
77496;SHT31;66600;48.378;9.948;2023-04-24T01:50:29;8.99;90.90
77496;SHT31;66600;48.378;9.948;2023-04-24T01:52:55;8.92;90.94
77496;SHT31;66600;48.378;9.948;2023-04-24T01:55:21;8.89;91.36
77496;SHT31;66600;48.378;9.948;2023-04-24T01:57:46;8.95;91.40
77496;SHT31;66600;48.378;9.948;2023-04-24T02:00:12;8.92;91.15
77496;SHT31;66600;48.378;9.948;2023-04-24T02:02:39;8.90;91.23
77496;SHT31;66600;48.378;9.948;2023-04-24T02:05:07;8.92;91.32
77496;SHT31;66600;48.378;9.948;2023-04-24T02:07:32;8.92;91.33
77496;SHT31;66600;48.378;9.948;2023-04-24T02:09:58;8.92;91.24
77496;SHT31;66600;48.378;9.948;2023-04-24T02:12:23;8.92;91.50
77496;SHT31;66600;48.378;9.948;2023-04-24T02:14:48;8.95;90.89
77496;SHT31;66600;48.378;9.948;2023-04-24T02:17:14;8.99;90.48
77496;SHT31;66600;48.378;9.948;2023-04-24T02:19:40;9.02;90.43
77496;SHT31;66600;48.378;9.948;2023-04-24T02:22:06;9.00;90.55
77496;SHT31;66600;48.378;9.948;2023-04-24T02:24:31;9.02;90.31
77496;SHT31;66600;48.378;9.948;2023-04-24T02:26:56;8.95;90.28
77496;SHT31;66600;48.378;9.948;2023-04-24T02:29:23;8.95;90.09
77496;SHT31;66600;48.378;9.948;2023-04-24T02:31:48;8.92;90.17
77496;SHT31;66600;48.378;9.948;2023-04-24T02:34:13;8.95;90.10
77496;SHT31;66600;48.378;9.948;2023-04-24T02:36:38;8.88;89.84
77496;SHT31;66600;48.378;9.948;2023-04-24T02:39:04;8.88;90.04
77496;SHT31;66600;48.378;9.948;2023-04-24T02:41:29;8.89;89.51
77496;SHT31;66600;48.378;9.948;2023-04-24T02:43:59;8.89;89.63
77496;SHT31;66600;48.378;9.948;2023-04-24T02:46:25;8.86;89.78
77496;SHT31;66600;48.378;9.948;2023-04-24T02:48:50;8.82;89.64
77496;SHT31;66600;48.378;9.948;2023-04-24T02:51:16;8.81;90.17
77496;SHT31;66600;48.378;9.948;2023-04-24T02:53:41;8.83;90.03
77496;SHT31;66600;48.378;9.948;2023-04-24T02:56:07;8.81;89.64
77496;SHT31;66600;48.378;9.948;2023-04-24T02:58:32;8.79;89.63
77496;SHT31;66600;48.378;9.948;2023-04-24T03:00:57;8.82;89.46
77496;SHT31;66600;48.378;9.948;2023-04-24T03:03:23;8.79;89.40
77496;SHT31;66600;48.378;9.948;2023-04-24T03:05:49;8.76;89.57
77496;SHT31;66600;48.378;9.948;2023-04-24T03:08:14;8.81;89.93
77496;SHT31;66600;48.378;9.948;2023-04-24T03:10:39;8.81;90.17
77496;SHT31;66600;48.378;9.948;2023-04-24T03:13:05;8.82;90.42
77496;SHT31;66600;48.378;9.948;2023-04-24T03:15:30;8.88;90.19
77496;SHT31;66600;48.378;9.948;2023-04-24T03:17:55;8.92;90.25
77496;SHT31;66600;48.378;9.948;2023-04-24T03:20:21;8.93;90.23
77496;SHT31;66600;48.378;9.948;2023-04-24T03:22:46;8.96;89.93
77496;SHT31;66600;48.378;9.948;2023-04-24T03:25:11;8.99;89.76
77496;SHT31;66600;48.378;9.948;2023-04-24T03:27:37;8.98;89.84
77496;SHT31;66600;48.378;9.948;2023-04-24T03:30:03;8.98;89.97
77496;SHT31;66600;48.378;9.948;2023-04-24T03:32:28;9.00;90.15
77496;SHT31;66600;48.378;9.948;2023-04-24T03:34:53;9.02;90.20
77496;SHT31;66600;48.378;9.948;2023-04-24T03:37:19;9.05;90.21
77496;SHT31;66600;48.378;9.948;2023-04-24T03:39:44;9.10;89.99
77496;SHT31;66600;48.378;9.948;2023-04-24T03:42:09;9.12;89.71
77496;SHT31;66600;48.378;9.948;2023-04-24T03:44:35;9.07;89.94
77496;SHT31;66600;48.378;9.948;2023-04-24T03:47:01;9.05;90.00
77496;SHT31;66600;48.378;9.948;2023-04-24T03:49:26;9.03;90.14
77496;SHT31;66600;48.378;9.948;2023-04-24T03:51:51;9.03;90.03
77496;SHT31;66600;48.378;9.948;2023-04-24T03:54:20;9.00;90.20
77496;SHT31;66600;48.378;9.948;2023-04-24T03:56:45;9.00;90.17
77496;SHT31;66600;48.378;9.948;2023-04-24T03:59:11;9.02;90.48
77496;SHT31;66600;48.378;9.948;2023-04-24T04:01:36;9.05;90.16
77496;SHT31;66600;48.378;9.948;2023-04-24T04:04:05;8.96;90.44
77496;SHT31;66600;48.378;9.948;2023-04-24T04:06:31;8.95;90.51
77496;SHT31;66600;48.378;9.948;2023-04-24T04:08:57;8.96;90.78
77496;SHT31;66600;48.378;9.948;2023-04-24T04:11:23;8.92;90.85
77496;SHT31;66600;48.378;9.948;2023-04-24T04:13:48;8.90;90.91
77496;SHT31;66600;48.378;9.948;2023-04-24T04:16:14;8.98;90.92
77496;SHT31;66600;48.378;9.948;2023-04-24T04:18:42;8.96;90.85
77496;SHT31;66600;48.378;9.948;2023-04-24T04:21:07;8.96;90.86
77496;SHT31;66600;48.378;9.948;2023-04-24T04:23:32;8.99;90.88
77496;SHT31;66600;48.378;9.948;2023-04-24T04:25:58;9.03;90.87
77496;SHT31;66600;48.378;9.948;2023-04-24T04:28:23;9.00;91.05
77496;SHT31;66600;48.378;9.948;2023-04-24T04:30:49;9.07;91.04
77496;SHT31;66600;48.378;9.948;2023-04-24T04:33:19;9.10;90.77
77496;SHT31;66600;48.378;9.948;2023-04-24T04:35:44;9.10;90.77
77496;SHT31;66600;48.378;9.948;2023-04-24T04:38:10;9.10;90.46
77496;SHT31;66600;48.378;9.948;2023-04-24T04:40:36;9.15;90.41
77496;SHT31;66600;48.378;9.948;2023-04-24T04:43:01;9.13;90.19
77496;SHT31;66600;48.378;9.948;2023-04-24T04:45:27;9.15;90.33
77496;SHT31;66600;48.378;9.948;2023-04-24T04:47:53;9.20;90.20
77496;SHT31;66600;48.378;9.948;2023-04-24T04:50:20;9.24;89.99
77496;SHT31;66600;48.378;9.948;2023-04-24T04:52:45;9.19;89.49
77496;SHT31;66600;48.378;9.948;2023-04-24T04:55:11;9.23;89.26
77496;SHT31;66600;48.378;9.948;2023-04-24T04:57:39;9.24;89.29
77496;SHT31;66600;48.378;9.948;2023-04-24T05:00:05;9.31;88.76
77496;SHT31;66600;48.378;9.948;2023-04-24T05:02:32;9.30;88.19
77496;SHT31;66600;48.378;9.948;2023-04-24T05:04:57;9.34;88.15
77496;SHT31;66600;48.378;9.948;2023-04-24T05:07:22;9.34;87.51
77496;SHT31;66600;48.378;9.948;2023-04-24T05:09:48;9.34;86.90
77496;SHT31;66600;48.378;9.948;2023-04-24T05:12:13;9.36;87.20
77496;SHT31;66600;48.378;9.948;2023-04-24T05:14:38;9.41;86.77
77496;SHT31;66600;48.378;9.948;2023-04-24T05:17:04;9.43;86.77
77496;SHT31;66600;48.378;9.948;2023-04-24T05:19:29;9.38;86.14
77496;SHT31;66600;48.378;9.948;2023-04-24T05:21:55;9.40;86.37
77496;SHT31;66600;48.378;9.948;2023-04-24T05:24:20;9.37;85.90
77496;SHT31;66600;48.378;9.948;2023-04-24T05:26:46;9.31;86.09
77496;SHT31;66600;48.378;9.948;2023-04-24T05:29:12;9.33;86.65
77496;SHT31;66600;48.378;9.948;2023-04-24T05:31:37;9.38;86.06
77496;SHT31;66600;48.378;9.948;2023-04-24T05:34:02;9.47;85.62
77496;SHT31;66600;48.378;9.948;2023-04-24T05:36:27;9.50;85.76
77496;SHT31;66600;48.378;9.948;2023-04-24T05:38:53;9.50;85.06
77496;SHT31;66600;48.378;9.948;2023-04-24T05:41:19;9.47;85.45
77496;SHT31;66600;48.378;9.948;2023-04-24T05:43:44;9.52;85.67
77496;SHT31;66600;48.378;9.948;2023-04-24T05:46:11;9.64;85.08
77496;SHT31;66600;48.378;9.948;2023-04-24T05:48:36;9.71;84.65
77496;SHT31;66600;48.378;9.948;2023-04-24T05:51:02;9.70;84.46
77496;SHT31;66600;48.378;9.948;2023-04-24T05:53:27;9.75;84.78
77496;SHT31;66600;48.378;9.948;2023-04-24T05:55:52;9.72;84.45
77496;SHT31;66600;48.378;9.948;2023-04-24T05:58:18;9.70;84.30
77496;SHT31;66600;48.378;9.948;2023-04-24T06:00:43;9.59;84.43
77496;SHT31;66600;48.378;9.948;2023-04-24T06:03:11;9.54;85.08
77496;SHT31;66600;48.378;9.948;2023-04-24T06:05:36;9.62;84.83
77496;SHT31;66600;48.378;9.948;2023-04-24T06:08:02;9.57;85.43
77496;SHT31;66600;48.378;9.948;2023-04-24T06:10:27;9.47;85.65
77496;SHT31;66600;48.378;9.948;2023-04-24T06:12:53;9.28;86.46
77496;SHT31;66600;48.378;9.948;2023-04-24T06:15:21;9.07;87.97
77496;SHT31;66600;48.378;9.948;2023-04-24T06:17:47;8.88;88.46
77496;SHT31;66600;48.378;9.948;2023-04-24T06:20:12;8.62;89.63
77496;SHT31;66600;48.378;9.948;2023-04-24T06:22:38;8.51;86.94
77496;SHT31;66600;48.378;9.948;2023-04-24T06:25:05;8.50;83.77
77496;SHT31;66600;48.378;9.948;2023-04-24T06:27:31;8.44;83.87
77496;SHT31;66600;48.378;9.948;2023-04-24T06:29:56;8.33;83.17
77496;SHT31;66600;48.378;9.948;2023-04-24T06:32:22;8.36;86.10
77496;SHT31;66600;48.378;9.948;2023-04-24T06:34:48;8.30;84.11
77496;SHT31;66600;48.378;9.948;2023-04-24T06:37:14;8.27;83.48
77496;SHT31;66600;48.378;9.948;2023-04-24T06:39:41;8.19;82.93
77496;SHT31;66600;48.378;9.948;2023-04-24T06:42:06;8.19;83.50
77496;SHT31;66600;48.378;9.948;2023-04-24T06:44:33;8.16;84.00
77496;SHT31;66600;48.378;9.948;2023-04-24T06:47:02;8.20;83.95
77496;SHT31;66600;48.378;9.948;2023-04-24T06:49:28;8.24;84.66
77496;SHT31;66600;48.378;9.948;2023-04-24T06:51:53;8.27;84.51
77496;SHT31;66600;48.378;9.948;2023-04-24T06:54:18;8.38;84.18
77496;SHT31;66600;48.378;9.948;2023-04-24T06:56:44;8.47;84.41
77496;SHT31;66600;48.378;9.948;2023-04-24T06:59:12;8.65;85.82
77496;SHT31;66600;48.378;9.948;2023-04-24T07:01:37;8.81;84.54
77496;SHT31;66600;48.378;9.948;2023-04-24T07:04:03;8.86;85.00
77496;SHT31;66600;48.378;9.948;2023-04-24T07:06:29;9.02;85.09
77496;SHT31;66600;48.378;9.948;2023-04-24T07:08:55;9.05;83.45
77496;SHT31;66600;48.378;9.948;2023-04-24T07:11:21;9.05;82.23
77496;SHT31;66600;48.378;9.948;2023-04-24T07:13:47;9.12;82.02
77496;SHT31;66600;48.378;9.948;2023-04-24T07:16:12;9.24;82.09
77496;SHT31;66600;48.378;9.948;2023-04-24T07:18:38;9.54;82.26
77496;SHT31;66600;48.378;9.948;2023-04-24T07:21:04;9.92;81.38
77496;SHT31;66600;48.378;9.948;2023-04-24T07:23:30;10.02;80.85
77496;SHT31;66600;48.378;9.948;2023-04-24T07:25:56;10.24;79.42
77496;SHT31;66600;48.378;9.948;2023-04-24T07:28:21;10.17;80.75
77496;SHT31;66600;48.378;9.948;2023-04-24T07:30:47;10.05;79.91
77496;SHT31;66600;48.378;9.948;2023-04-24T07:33:12;9.84;81.45
77496;SHT31;66600;48.378;9.948;2023-04-24T07:35:38;9.84;79.89
77496;SHT31;66600;48.378;9.948;2023-04-24T07:38:04;9.84;79.15
77496;SHT31;66600;48.378;9.948;2023-04-24T07:40:29;9.89;78.35
77496;SHT31;66600;48.378;9.948;2023-04-24T07:42:55;10.01;79.15
77496;SHT31;66600;48.378;9.948;2023-04-24T07:45:20;10.09;79.65
77496;SHT31;66600;48.378;9.948;2023-04-24T07:47:46;10.20;80.02
77496;SHT31;66600;48.378;9.948;2023-04-24T07:50:14;10.34;80.70
77496;SHT31;66600;48.378;9.948;2023-04-24T07:52:42;10.49;78.69
77496;SHT31;66600;48.378;9.948;2023-04-24T07:55:07;10.58;76.47
77496;SHT31;66600;48.378;9.948;2023-04-24T07:57:33;10.61;77.95
77496;SHT31;66600;48.378;9.948;2023-04-24T07:59:58;10.92;78.90
77496;SHT31;66600;48.378;9.948;2023-04-24T08:02:24;11.02;71.53
77496;SHT31;66600;48.378;9.948;2023-04-24T08:04:54;10.85;71.86
77496;SHT31;66600;48.378;9.948;2023-04-24T08:07:20;10.94;70.98
77496;SHT31;66600;48.378;9.948;2023-04-24T08:09:46;10.71;69.16
77496;SHT31;66600;48.378;9.948;2023-04-24T08:12:11;10.60;70.09
77496;SHT31;66600;48.378;9.948;2023-04-24T08:14:37;10.65;68.54
77496;SHT31;66600;48.378;9.948;2023-04-24T08:17:02;10.67;67.69
77496;SHT31;66600;48.378;9.948;2023-04-24T08:19:28;10.77;67.96
77496;SHT31;66600;48.378;9.948;2023-04-24T08:21:53;10.74;69.46
77496;SHT31;66600;48.378;9.948;2023-04-24T08:24:19;10.87;68.77
77496;SHT31;66600;48.378;9.948;2023-04-24T08:26:44;10.64;70.56
77496;SHT31;66600;48.378;9.948;2023-04-24T08:29:10;10.53;69.43
77496;SHT31;66600;48.378;9.948;2023-04-24T08:31:35;10.53;69.30
77496;SHT31;66600;48.378;9.948;2023-04-24T08:34:00;10.61;68.92
77496;SHT31;66600;48.378;9.948;2023-04-24T08:36:26;10.96;68.06
77496;SHT31;66600;48.378;9.948;2023-04-24T08:38:52;11.50;66.03
77496;SHT31;66600;48.378;9.948;2023-04-24T08:41:18;12.15;65.37
77496;SHT31;66600;48.378;9.948;2023-04-24T08:43:46;12.42;64.61
77496;SHT31;66600;48.378;9.948;2023-04-24T08:46:13;11.98;65.74
77496;SHT31;66600;48.378;9.948;2023-04-24T08:48:39;11.13;72.28
77496;SHT31;66600;48.378;9.948;2023-04-24T08:51:07;9.16;76.71
77496;SHT31;66600;48.378;9.948;2023-04-24T08:53:32;8.47;76.42
77496;SHT31;66600;48.378;9.948;2023-04-24T08:55:58;8.36;78.12
77496;SHT31;66600;48.378;9.948;2023-04-24T08:58:26;8.60;76.80
77496;SHT31;66600;48.378;9.948;2023-04-24T09:00:55;8.81;77.08
77496;SHT31;66600;48.378;9.948;2023-04-24T09:03:20;8.95;75.07
77496;SHT31;66600;48.378;9.948;2023-04-24T09:05:47;9.16;75.43
77496;SHT31;66600;48.378;9.948;2023-04-24T09:08:13;9.16;72.96
77496;SHT31;66600;48.378;9.948;2023-04-24T09:10:40;9.36;74.61
77496;SHT31;66600;48.378;9.948;2023-04-24T09:13:06;9.57;73.70
77496;SHT31;66600;48.378;9.948;2023-04-24T09:15:34;9.57;73.06
77496;SHT31;66600;48.378;9.948;2023-04-24T09:18:03;9.51;72.30
77496;SHT31;66600;48.378;9.948;2023-04-24T09:20:29;9.52;71.82
77496;SHT31;66600;48.378;9.948;2023-04-24T09:22:56;9.62;70.46
77496;SHT31;66600;48.378;9.948;2023-04-24T09:25:22;9.96;71.66
77496;SHT31;66600;48.378;9.948;2023-04-24T09:27:47;10.24;69.38
77496;SHT31;66600;48.378;9.948;2023-04-24T09:30:13;10.30;70.48
77496;SHT31;66600;48.378;9.948;2023-04-24T09:32:39;10.28;70.21
77496;SHT31;66600;48.378;9.948;2023-04-24T09:35:13;10.28;72.32
77496;SHT31;66600;48.378;9.948;2023-04-24T09:37:43;10.60;68.88
77496;SHT31;66600;48.378;9.948;2023-04-24T09:40:11;10.82;68.00
77496;SHT31;66600;48.378;9.948;2023-04-24T09:42:37;10.64;66.22
77496;SHT31;66600;48.378;9.948;2023-04-24T09:45:04;10.60;66.09
77496;SHT31;66600;48.378;9.948;2023-04-24T09:47:38;10.78;65.15
77496;SHT31;66600;48.378;9.948;2023-04-24T09:50:15;10.92;65.02
77496;SHT31;66600;48.378;9.948;2023-04-24T09:52:45;10.95;64.75
77496;SHT31;66600;48.378;9.948;2023-04-24T09:55:18;10.92;64.76
77496;SHT31;66600;48.378;9.948;2023-04-24T09:57:51;11.01;64.11
77496;SHT31;66600;48.378;9.948;2023-04-24T10:00:25;10.74;62.69
77496;SHT31;66600;48.378;9.948;2023-04-24T10:03:04;10.64;63.80
77496;SHT31;66600;48.378;9.948;2023-04-24T10:05:32;10.58;63.49
77496;SHT31;66600;48.378;9.948;2023-04-24T10:08:03;10.57;63.96
77496;SHT31;66600;48.378;9.948;2023-04-24T10:10:30;10.65;62.00
77496;SHT31;66600;48.378;9.948;2023-04-24T10:12:56;10.94;62.69
77496;SHT31;66600;48.378;9.948;2023-04-24T10:15:21;11.44;61.48
77496;SHT31;66600;48.378;9.948;2023-04-24T10:17:49;11.63;58.92
77496;SHT31;66600;48.378;9.948;2023-04-24T10:20:19;11.57;59.38
77496;SHT31;66600;48.378;9.948;2023-04-24T10:22:47;11.66;60.86
77496;SHT31;66600;48.378;9.948;2023-04-24T10:25:16;11.67;58.39
77496;SHT31;66600;48.378;9.948;2023-04-24T10:27:42;11.88;59.58
77496;SHT31;66600;48.378;9.948;2023-04-24T10:30:08;11.91;59.58
77496;SHT31;66600;48.378;9.948;2023-04-24T10:32:34;11.95;59.81
77496;SHT31;66600;48.378;9.948;2023-04-24T10:35:00;12.05;60.34
77496;SHT31;66600;48.378;9.948;2023-04-24T10:37:26;12.11;54.58
77496;SHT31;66600;48.378;9.948;2023-04-24T10:39:52;12.05;55.37
77496;SHT31;66600;48.378;9.948;2023-04-24T10:42:19;12.29;54.48
77496;SHT31;66600;48.378;9.948;2023-04-24T10:44:47;12.42;57.13
77496;SHT31;66600;48.378;9.948;2023-04-24T10:47:13;12.56;56.46
77496;SHT31;66600;48.378;9.948;2023-04-24T10:49:39;12.12;59.08
77496;SHT31;66600;48.378;9.948;2023-04-24T10:52:05;11.23;60.08
77496;SHT31;66600;48.378;9.948;2023-04-24T10:54:44;10.46;63.48
77496;SHT31;66600;48.378;9.948;2023-04-24T11:00:15;10.54;65.85
77496;SHT31;66600;48.378;9.948;2023-04-24T11:02:41;11.01;64.79
77496;SHT31;66600;48.378;9.948;2023-04-24T11:05:15;11.50;64.57
77496;SHT31;66600;48.378;9.948;2023-04-24T11:08:10;11.97;62.34
77496;SHT31;66600;48.378;9.948;2023-04-24T11:10:47;12.09;60.82
77496;SHT31;66600;48.378;9.948;2023-04-24T11:13:16;12.45;59.79
77496;SHT31;66600;48.378;9.948;2023-04-24T11:15:42;12.57;59.77
77496;SHT31;66600;48.378;9.948;2023-04-24T11:18:13;13.11;56.87
77496;SHT31;66600;48.378;9.948;2023-04-24T11:20:42;12.30;55.60
77496;SHT31;66600;48.378;9.948;2023-04-24T11:23:08;11.99;56.44
77496;SHT31;66600;48.378;9.948;2023-04-24T11:25:35;11.80;57.02
77496;SHT31;66600;48.378;9.948;2023-04-24T11:28:04;11.78;56.66
77496;SHT31;66600;48.378;9.948;2023-04-24T11:30:32;11.99;57.81
77496;SHT31;66600;48.378;9.948;2023-04-24T11:33:03;11.81;58.10
77496;SHT31;66600;48.378;9.948;2023-04-24T11:35:29;12.01;58.79
77496;SHT31;66600;48.378;9.948;2023-04-24T11:37:56;11.75;59.68
77496;SHT31;66600;48.378;9.948;2023-04-24T11:40:22;11.85;59.09
77496;SHT31;66600;48.378;9.948;2023-04-24T11:42:49;11.50;59.82
77496;SHT31;66600;48.378;9.948;2023-04-24T11:45:25;11.54;59.82
77496;SHT31;66600;48.378;9.948;2023-04-24T11:47:51;11.49;60.29
77496;SHT31;66600;48.378;9.948;2023-04-24T11:50:22;11.66;59.12
77496;SHT31;66600;48.378;9.948;2023-04-24T11:52:49;11.81;60.54
77496;SHT31;66600;48.378;9.948;2023-04-24T11:57:42;12.15;53.67
77496;SHT31;66600;48.378;9.948;2023-04-24T12:00:15;12.14;51.18
77496;SHT31;66600;48.378;9.948;2023-04-24T12:02:41;12.12;51.90
77496;SHT31;66600;48.378;9.948;2023-04-24T12:05:07;12.22;51.75
77496;SHT31;66600;48.378;9.948;2023-04-24T12:07:40;12.09;52.07
77496;SHT31;66600;48.378;9.948;2023-04-24T12:10:08;12.46;54.20
77496;SHT31;66600;48.378;9.948;2023-04-24T12:12:34;12.97;52.93
77496;SHT31;66600;48.378;9.948;2023-04-24T12:14:59;13.08;53.96
77496;SHT31;66600;48.378;9.948;2023-04-24T12:17:31;13.48;53.46
77496;SHT31;66600;48.378;9.948;2023-04-24T12:19:58;12.87;54.30
77496;SHT31;66600;48.378;9.948;2023-04-24T12:22:24;12.42;54.48
77496;SHT31;66600;48.378;9.948;2023-04-24T12:25:16;11.85;53.55
77496;SHT31;66600;48.378;9.948;2023-04-24T12:27:43;11.85;54.93
77496;SHT31;66600;48.378;9.948;2023-04-24T12:30:14;11.88;54.58
77496;SHT31;66600;48.378;9.948;2023-04-24T12:32:48;12.15;52.85
77496;SHT31;66600;48.378;9.948;2023-04-24T12:35:19;12.84;52.40
77496;SHT31;66600;48.378;9.948;2023-04-24T12:37:46;13.12;51.82
77496;SHT31;66600;48.378;9.948;2023-04-24T12:40:12;12.84;48.46
77496;SHT31;66600;48.378;9.948;2023-04-24T12:42:50;12.24;51.23
77496;SHT31;66600;48.378;9.948;2023-04-24T12:45:18;12.24;52.39
77496;SHT31;66600;48.378;9.948;2023-04-24T12:47:44;12.22;52.34
77496;SHT31;66600;48.378;9.948;2023-04-24T12:50:14;12.42;52.36
77496;SHT31;66600;48.378;9.948;2023-04-24T12:52:40;12.25;52.33
77496;SHT31;66600;48.378;9.948;2023-04-24T12:55:06;11.97;50.97
77496;SHT31;66600;48.378;9.948;2023-04-24T12:57:36;11.71;51.46
77496;SHT31;66600;48.378;9.948;2023-04-24T13:00:03;11.71;52.29
77496;SHT31;66600;48.378;9.948;2023-04-24T13:02:30;11.61;52.48
77496;SHT31;66600;48.378;9.948;2023-04-24T13:04:56;11.37;53.08
77496;SHT31;66600;48.378;9.948;2023-04-24T13:07:22;11.01;52.41
77496;SHT31;66600;48.378;9.948;2023-04-24T13:09:48;11.23;52.67
77496;SHT31;66600;48.378;9.948;2023-04-24T13:12:14;11.18;54.09
77496;SHT31;66600;48.378;9.948;2023-04-24T13:14:40;11.04;53.71
77496;SHT31;66600;48.378;9.948;2023-04-24T13:17:05;11.01;53.05
77496;SHT31;66600;48.378;9.948;2023-04-24T13:19:36;11.15;53.62
77496;SHT31;66600;48.378;9.948;2023-04-24T13:22:03;11.40;54.67
77496;SHT31;66600;48.378;9.948;2023-04-24T13:24:28;11.33;54.15
77496;SHT31;66600;48.378;9.948;2023-04-24T13:26:53;11.47;55.12
77496;SHT31;66600;48.378;9.948;2023-04-24T13:29:19;11.12;55.26
77496;SHT31;66600;48.378;9.948;2023-04-24T13:31:46;11.32;55.85
77496;SHT31;66600;48.378;9.948;2023-04-24T13:34:12;11.25;54.84
77496;SHT31;66600;48.378;9.948;2023-04-24T13:36:38;11.04;55.07
77496;SHT31;66600;48.378;9.948;2023-04-24T13:39:05;11.04;55.79
77496;SHT31;66600;48.378;9.948;2023-04-24T13:41:30;11.27;55.74
77496;SHT31;66600;48.378;9.948;2023-04-24T13:43:56;11.56;55.73
77496;SHT31;66600;48.378;9.948;2023-04-24T13:46:21;11.59;54.97
77496;SHT31;66600;48.378;9.948;2023-04-24T13:48:47;11.53;54.68
77496;SHT31;66600;48.378;9.948;2023-04-24T13:51:12;11.20;56.21
77496;SHT31;66600;48.378;9.948;2023-04-24T13:53:37;11.34;54.16
77496;SHT31;66600;48.378;9.948;2023-04-24T13:56:04;11.29;54.01
77496;SHT31;66600;48.378;9.948;2023-04-24T13:58:30;11.36;53.07
77496;SHT31;66600;48.378;9.948;2023-04-24T14:00:56;11.39;53.27
77496;SHT31;66600;48.378;9.948;2023-04-24T14:03:21;11.33;52.92
77496;SHT31;66600;48.378;9.948;2023-04-24T14:05:46;11.27;53.45
77496;SHT31;66600;48.378;9.948;2023-04-24T14:08:12;11.47;53.65
77496;SHT31;66600;48.378;9.948;2023-04-24T14:10:37;11.85;53.20
77496;SHT31;66600;48.378;9.948;2023-04-24T14:13:02;12.08;52.06
77496;SHT31;66600;48.378;9.948;2023-04-24T14:15:28;12.47;52.17
77496;SHT31;66600;48.378;9.948;2023-04-24T14:17:53;12.70;51.04
77496;SHT31;66600;48.378;9.948;2023-04-24T14:20:19;12.64;51.17
77496;SHT31;66600;48.378;9.948;2023-04-24T14:22:44;12.47;50.72
77496;SHT31;66600;48.378;9.948;2023-04-24T14:25:10;12.35;50.91
77496;SHT31;66600;48.378;9.948;2023-04-24T14:27:35;12.46;52.20
77496;SHT31;66600;48.378;9.948;2023-04-24T14:30:01;12.35;51.17
77496;SHT31;66600;48.378;9.948;2023-04-24T14:32:26;12.45;50.34
77496;SHT31;66600;48.378;9.948;2023-04-24T14:34:52;13.15;46.67
77496;SHT31;66600;48.378;9.948;2023-04-24T14:37:17;12.95;46.37
77496;SHT31;66600;48.378;9.948;2023-04-24T14:39:43;12.12;49.43
77496;SHT31;66600;48.378;9.948;2023-04-24T14:42:08;11.80;49.59
77496;SHT31;66600;48.378;9.948;2023-04-24T14:44:33;11.59;50.06
77496;SHT31;66600;48.378;9.948;2023-04-24T14:46:59;11.61;49.79
77496;SHT31;66600;48.378;9.948;2023-04-24T14:49:25;11.73;50.59
77496;SHT31;66600;48.378;9.948;2023-04-24T14:51:50;11.90;49.85
77496;SHT31;66600;48.378;9.948;2023-04-24T14:54:16;12.06;50.98
77496;SHT31;66600;48.378;9.948;2023-04-24T14:56:41;12.57;49.33
77496;SHT31;66600;48.378;9.948;2023-04-24T14:59:08;12.22;49.31
77496;SHT31;66600;48.378;9.948;2023-04-24T15:01:34;13.38;45.36
77496;SHT31;66600;48.378;9.948;2023-04-24T15:03:59;13.98;45.21
77496;SHT31;66600;48.378;9.948;2023-04-24T15:06:25;13.56;44.28
77496;SHT31;66600;48.378;9.948;2023-04-24T15:08:50;13.34;45.30
77496;SHT31;66600;48.378;9.948;2023-04-24T15:11:16;12.50;46.23
77496;SHT31;66600;48.378;9.948;2023-04-24T15:13:41;12.40;47.17
77496;SHT31;66600;48.378;9.948;2023-04-24T15:16:06;12.43;47.46
77496;SHT31;66600;48.378;9.948;2023-04-24T15:18:32;12.81;46.04
77496;SHT31;66600;48.378;9.948;2023-04-24T15:20:57;12.47;46.17
77496;SHT31;66600;48.378;9.948;2023-04-24T15:23:22;12.55;46.22
77496;SHT31;66600;48.378;9.948;2023-04-24T15:25:48;12.64;45.69
77496;SHT31;66600;48.378;9.948;2023-04-24T15:28:13;12.32;47.57
77496;SHT31;66600;48.378;9.948;2023-04-24T15:30:40;12.06;48.15
77496;SHT31;66600;48.378;9.948;2023-04-24T15:33:05;11.92;49.48
77496;SHT31;66600;48.378;9.948;2023-04-24T15:35:31;11.85;48.76
77496;SHT31;66600;48.378;9.948;2023-04-24T15:37:56;11.87;49.13
77496;SHT31;66600;48.378;9.948;2023-04-24T15:40:21;11.94;50.10